Flight Track Log - Related Links

Times and Time Zones

All times are in EDT time to prevent confusion due to time zone crossing. See the ASH3770 flight status page for this flight to view local times or setup timezone preferences in your user account.

Time Position Orientation Groundspeed Altitude Reporting Facility
EDT Latitude Longitude Course Direction KTS MPH feet Rate Location/Type
Tue 10:20:57 PM 41.9333 -87.8833 77° East 190 219 2,800  Level Chicago TRACON
Tue 10:21:57 PM 41.8833 -87.8167 135° Southeast 235 270 4,900 1,500 Climbing Chicago TRACON
Tue 10:22:57 PM 41.8500 -87.7333 118° Southeast 294 338 5,800 1,904 Climbing Chicago TRACON
Tue 10:24:44 PM 41.9056 -87.5464 68° East 323 372 10,200 2,571 Climbing Chicago Center
Tue 10:25:45 PM 41.9506 -87.4400 60° Northeast 329 379 13,000 2,341 Climbing Chicago Center
Tue 10:26:00 PM 42.1040 -87.0092 77° East  Level FlightAware Approximate
Tue 10:26:47 PM 42.0006 -87.3297 59° Northeast 343 395 15,000  Level Chicago Center
Tue 10:27:48 PM 42.0611 -87.1847 61° Northeast 370 426 18,400 2,607 Climbing Chicago Center
Tue 10:28:49 PM 42.1100 -87.0614 62° Northeast 376 433 20,300 1,805 Climbing Chicago Center
Tue 10:29:51 PM 42.1189 -86.9128 85° East 396 456 22,100 1,707 Climbing Chicago Center
Tue 10:30:52 PM 42.1233 -86.7567 88° East 413 475 23,800 1,475 Climbing Chicago Center
Tue 10:31:53 PM 42.1278 -86.5925 88° East 432 497 25,100 1,415 Climbing Chicago Center
Tue 10:32:55 PM 42.1333 -86.4261 87° East 443 510 26,700 1,512 Climbing Chicago Center
Tue 10:33:56 PM 42.1383 -86.2553 88° East 452 520 28,200 1,279 Climbing Chicago Center
Tue 10:34:57 PM 42.1431 -86.0817 88° East 461 531 29,300 1,131 Climbing Chicago Center
Tue 10:35:58 PM 42.1408 -85.8819 91° East 474 545 30,500 1,073 Climbing Chicago Center
Tue 10:37:00 PM 42.1400 -85.7006 90° East 485 558 31,500 976 Climbing Chicago Center
Tue 10:38:01 PM 42.1367 -85.5181 91° East 491 565 32,500 738 Climbing Chicago Center
Tue 10:39:02 PM 42.1353 -85.3331 91° East 497 572 33,000 808 Climbing Chicago Center
Tue 10:39:45 PM 42.1383 -85.1958 88° East 501 577 33,900 2,039 Climbing Cleveland Center
Tue 10:40:45 PM 42.1350 -85.0161 91° East 496 571 36,500 1,550 Climbing Cleveland Center
Tue 10:41:45 PM 42.1333 -84.8397 91° East 484 557 37,000 250 Climbing Cleveland Center
Tue 10:42:45 PM 42.1486 -84.6444 84° East 477 549 37,000  Level Cleveland Center
Tue 10:43:45 PM 42.1564 -84.4797 86° East 477 549 37,000  Level Cleveland Center
Tue 10:44:45 PM 42.1731 -84.2900 83° East 494 568 37,000  Level Cleveland Center
Tue 10:45:45 PM 42.1878 -84.0947 84° East 507 583 37,000  Level Cleveland Center
Tue 10:46:45 PM 42.2039 -83.8994 84° East 520 598 37,000  Level Cleveland Center
Tue 10:47:45 PM 42.2197 -83.7039 84° East 520 598 37,000  Level Cleveland Center
Tue 10:48:45 PM 42.2356 -83.5000 84° East 532 612 37,000  Level Cleveland Center
Tue 10:49:45 PM 42.2508 -83.2986 84° East 538 619 37,000  Level Cleveland Center
Tue 10:50:45 PM 42.2664 -83.0803 84° East 544 626 37,000  Level Cleveland Center
Tue 10:51:45 PM 42.2808 -82.8817 84° East 532 612 37,000  Level Cleveland Center
Tue 10:52:45 PM 42.2950 -82.6883 84° East 526 605 37,000  Level Cleveland Center
Tue 10:53:45 PM 42.3069 -82.4894 85° East 526 605 37,000  Level Cleveland Center
Tue 10:54:45 PM 42.3203 -82.2933 85° East 526 605 37,000  Level Cleveland Center
Tue 10:55:45 PM 42.3336 -82.0942 85° East 526 605 37,000  Level Cleveland Center
Tue 10:56:45 PM 42.3486 -81.8953 84° East 531 611 37,000  Level Cleveland Center
Tue 10:57:45 PM 42.3611 -81.6958 85° East 531 611 37,000  Level Cleveland Center
Tue 10:58:45 PM 42.3689 -81.5161 87° East 531 611 37,000  Level Cleveland Center
Tue 10:59:45 PM 42.3808 -81.3194 85° East 531 611 37,000  Level Cleveland Center
Tue 11:00:45 PM 42.3922 -81.1258 85° East 531 611 37,000  Level Cleveland Center
Tue 11:01:45 PM 42.4033 -80.9261 86° East 531 611 37,000  Level Cleveland Center
Tue 11:02:45 PM 42.4142 -80.7267 86° East 538 619 37,000  Level Cleveland Center
Tue 11:03:45 PM 42.4228 -80.5242 87° East 533 613 37,000  Level Cleveland Center
Tue 11:04:45 PM 42.4328 -80.3075 86° East 533 613 37,000  Level Cleveland Center
Tue 11:05:45 PM 42.4425 -80.1078 86° East 538 619 37,000  Level Cleveland Center
Tue 11:06:45 PM 42.4522 -79.9303 86° East 528 608 37,000  Level Cleveland Center
Tue 11:07:45 PM 42.4614 -79.7333 86° East 528 608 37,000  Level Cleveland Center
Tue 11:08:45 PM 42.4722 -79.5333 86° East 528 608 37,000  Level Cleveland Center
Tue 11:09:45 PM 42.4764 -79.3361 88° East 528 608 37,000  Level Cleveland Center
Tue 11:10:45 PM 42.4844 -79.1333 87° East 528 608 37,000  Level Cleveland Center
Tue 11:11:45 PM 42.4900 -78.9331 88° East 533 613 37,000  Level Cleveland Center
Tue 11:12:45 PM 42.4997 -78.7331 86° East 533 613 37,000  Level Cleveland Center
Tue 11:13:45 PM 42.5044 -78.5328 88° East 533 613 37,000  Level Cleveland Center
Tue 11:14:45 PM 42.5114 -78.3383 87° East 533 613 37,000  Level Cleveland Center
Tue 11:15:45 PM 42.5175 -78.1325 88° East 533 613 37,000  Level Cleveland Center
Tue 11:16:45 PM 42.5194 -77.9350 89° East 533 613 37,000  Level Cleveland Center
Tue 11:17:45 PM 42.5250 -77.7347 88° East 533 613 37,000  Level Cleveland Center
Tue 11:18:45 PM 42.5347 -77.5369 86° East 533 613 37,000 -253 Level Cleveland Center
Tue 11:20:31 PM 42.5400 -77.1608 89° East 532 612 36,300 -470 Descending Boston Center
Tue 11:21:31 PM 42.5417 -76.9608 89° East 532 612 35,700 -500 Descending Boston Center
Tue 11:22:31 PM 42.5453 -76.7608 89° East 532 612 35,300 -350 Descending Boston Center
Tue 11:23:31 PM 42.5506 -76.5639 88° East 532 612 35,000 -150 Descending Boston Center
Tue 11:24:31 PM 42.5511 -76.3722 90° East 522 601 35,000  Level Boston Center
Tue 11:25:31 PM 42.5550 -76.1978 88° East 514 592 35,000  Level Boston Center
Tue 11:26:32 PM 42.5572 -76.0033 89° East 514 592 35,000  Level Boston Center
Tue 11:27:31 PM 42.5467 -75.8025 94° East 519 597 35,000 -183 Level Boston Center
Tue 11:28:43 PM 42.5117 -75.5611 101° East 533 613 34,600 -409 Descending Boston Center
Tue 11:29:43 PM 42.4817 -75.3597 101° East 543 625 34,100 -900 Descending Boston Center
Tue 11:30:43 PM 42.4678 -75.1647 95° East 543 625 32,800 -2,650 Descending Boston Center
Tue 11:31:43 PM 42.4700 -74.9733 89° East 521 600 28,800 -3,800 Descending Boston Center
Tue 11:32:43 PM 42.4761 -74.7906 87° East 497 572 25,200 -3,521 Descending Boston Center
Tue 11:33:44 PM 42.4775 -74.6189 89° East 473 544 21,700 -3,500 Descending Boston Center
Tue 11:34:43 PM 42.4597 -74.4467 98° East 457 526 18,200 -1,866 Descending Boston Center
Tue 11:35:43 PM 42.4128 -74.2708 110° East 451 519 18,000 -248 Descending Boston Center
Tue 11:36:44 PM 42.3692 -74.1261 112° Southeast 456 525 17,700 -400 Descending Boston Center
Tue 11:37:43 PM 42.3175 -73.9478 111° Southeast 461 531 17,200 -504 Descending Boston Center
Tue 11:38:43 PM 42.2756 -73.8067 112° Southeast 453 521 16,700 -524 Descending Boston Center
Tue 11:39:26 PM 42.2414 -73.6825 110° East 451 519 16,300 -492 Descending Boston Center
Tue 11:39:44 PM 42.2314 -73.6514 113° Southeast 453 521 16,200 -500 Descending Boston Center
Tue 11:40:38 PM 42.1808 -73.4936 113° Southeast 443 510 15,700 -1,304 Descending Boston Center
Tue 11:41:39 PM 42.1467 -73.3417 107° East 419 482 13,700 -2,826 Descending Boston Center
Tue 11:42:39 PM 42.1333 -73.1958 97° East 394 453 10,000 -2,132 Descending Boston Center
Tue 11:43:40 PM 42.1236 -73.0783 96° East 314 361 9,400 -1,440 Descending Boston Center
Tue 11:44:44 PM 42.1200 -72.9606 92° East 297 342 7,000 -1,902 Descending Boston Center
Tue 11:45:43 PM 42.1119 -72.8739 97° East 291 335 5,500 -1,000 Descending Boston Center
Tue 11:46:44 PM 42.1039 -72.7592 95° East 266 306 5,000 -400 Descending Boston Center
Tue 11:47:43 PM 42.0981 -72.6808 96° East 215 247 4,700 -916 Descending Boston Center
Tue 11:48:55 PM 42.0878 -72.6022 100° East 184 212 3,000 -850 Descending Boston Center
Tue 11:49:43 PM 42.0836 -72.5492 96° East 179 206 3,000 -278 Level Boston Center
Tue 11:50:43 PM 42.0461 -72.5575 189° South 118 136 2,500 -450 Descending Boston Center
Tue 11:51:43 PM 42.0106 -72.5939 217° Southwest 120 138 2,100 -600 Descending Boston Center
Tue 11:52:43 PM 41.9814 -72.6328 225° Southwest 147 169 1,300 -900 Descending Boston Center
Tue 11:53:43 PM 41.9542 -72.6689 225° Southwest 147 169 300 -1,000 Descending Boston Center

Login

Don't have an account? Register now (free) for customized features, flight alerts, and more!